LTFE/BJV METAR and TAF weather

Enter ICAO airport designator
Station Type Date Time Source
LTFE METAR 2019/02/22 22:20 UTC NOAA

LTFE 222220Z 12003KT CAVOK 05/02 Q1016 NOSIG


Station Type Date Time Source
LTFE Decoded METAR 2019/02/22 22:20 UTC NOAA

Bodrum Milas Airport, Turkey (LTFE) 37-14-53N 027-40-55E
Feb 22, 2019 - 05:20 PM EST / 2019.02.22 2220 UTC
Wind: from the ESE (120 degrees) at 3 MPH (3 KT):0
Visibility: greater than 7 mile(s):0
Temperature: 41 F (5 C)
Dew Point: 35 F (2 C)
Relative Humidity: 80%
Pressure (altimeter): 30.00 in. Hg (1016 hPa)
ob: LTFE 222220Z 12003KT CAVOK 05/02 Q1016 NOSIG
cycle: 22

Station Type Date Time Source
LTFE TAF 2019/02/22 18:03 UTC NOAA

TAF TAF LTFE 221640Z 2218/2318 VRB02KT CAVOK
BECMG 2222/2301 SCT030 BKN100
TEMPO 2303/2306 -SHRA
BECMG 2306/2309 14012KT -SHRA PROB30
TEMPO 2310/2314 -TSRA FEW020CB BKN030


Example: see airport list